Terminal Aerodrome Forecast
Issued by NWS

Home | Current Version | Previous Version | Graphics & Text | Print | Product List | Glossary On
Versions: 1 2 3 4 5 6 7 8 9 10 11 12 13 14 15 16 17 18 19 20 21 22 23 24
000
FTUS43 KGRB 231134
TAFATW
TAF
KATW 231134Z 2312/2412 23007KT P6SM FEW250
     FM231500 34008KT P6SM BKN250
     FM231700 03009KT P6SM SCT035 SCT070
     FM232100 07010KT P6SM SCT035 BKN070
     FM240800 07006KT P6SM FEW050 SCT200=

USA.gov is the U.S. government's official web portal to all federal, state and local government web resources and services.